עמוד ראשי
METAR-TAF:

METAR-TAF

שדות תעופה :

קמגואיי, קובה

קו רוחב: 21-25N, קו אורך: 077-51W, גובה: 122מטר

תצפית מזג אוויר נוכחית

הדו"ח נערך לפני 19דקות, בשעה 23:50 UTC
רוח 4קשר מכיוון דרום/דרום-מערב
טמפרטורת 30 צלסיוס
לחות 66%
לחץ 1014 hPa
ראות: 9000מטר
עננים פזורים בגובה 2000רגל
עננים בינוניים בגובה 15000רגל

METAR: MUCM 122350Z 20004KT 9000 SCT020 BKN150 30/23 Q1014

זמן: 20:09 (00:09 UTC)

תחזית

הדו"ח נערך לפני 1 שעות ו 9דקות, בשעה 23:00 UTC
תחזית בתוקף מ 13 ב 00 UTC עד 13 ב 24 UTC
רוח 4קשר עם כיוונים משתנים
ראות: 9000מטר
מעט עננים בגובה 2000רגל
עננים בינוניים בגובה 10000רגל
זמנית מ -
13 ב 11 UTC עד 13 ב 12 UTC
ראות: 3000מטר
אד
זמנית מ -
13 ב 21 UTC עד 13 ב 24 UTC
ראות: 5000מטר
מעט עננים בגובה 1800רגל , קומולונימבוס.
עננים בינוניים בגובה 2000רגל
ממטרי גשם, סופת רעמים במרחב,

TAF: MUCM 122300Z 1300/1324 VRB04KT 9000 FEW020 BKN100 TEMPO 1311/1312 3000 BR TEMPO 1321/1324 5000 SHRA VCTS FEW018CB BKN020

תצפיות ותחזיות מזג אוויר לגבי יותר מ- 4,000 שדות תעופה ברחבי העולם. דוחות METAR ו- TAF.

התחנות הזמינות מסומנות בנקודות צהובות ואדומות על גבי המפה.

העבר את העכבר לנקודה הצבעונית על מנת לראות את שם התחנה.

לאחר מכן, לחץ כדי לראות את תוכן ואת תחזיות מזג האוויר.

כדי לשנות את המפה: לחץ על הכפתורים הירוקים עם הפלוס השחור כדי להתקרב; על הכפתור הירוק עם המקף כדי להתרחק; או בחיצים הירוקים למפות סמוכות.


METAR-TAF: